Time;durP1;ratioP1;P1;durP2;ratioP2;P2;SDS_P1;SDS_P2;PMS_P1;PMS_P2;Temp;Humidity;BMP_temperature;BMP_pressure;BME280_temperature;BME280_humidity;BME280_pressure;Samples;Min_cycle;Max_cycle;Signal;HPM_P1;HPM_P2
2022/05/21 00:00:29;;;;;;;14.15;3.30;;;;;;;;;;5052760;28;20037;-63
2022/05/21 00:02:55;;;;;;;18.35;3.53;;;;;;;;;;5053007;28;20025;-63
2022/05/21 00:05:23;;;;;;;26.13;5.43;;;;;;;;;;5052918;28;20056;-63
2022/05/21 00:07:49;;;;;;;17.08;3.25;;;;;;;;;;5052407;28;20036;-63
2022/05/21 00:10:16;;;;;;;14.88;3.25;;;;;;;;;;5052717;28;20025;-62
2022/05/21 00:12:43;;;;;;;14.32;2.58;;;;;;;;;;5052439;28;20039;-63
2022/05/21 00:15:10;;;;;;;13.68;2.92;;;;;;;;;;5052993;28;20024;-63
2022/05/21 00:17:36;;;;;;;19.42;3.50;;;;;;;;;;5052559;28;20028;-62
2022/05/21 00:20:03;;;;;;;20.63;2.80;;;;;;;;;;5052828;28;20075;-63
2022/05/21 00:22:29;;;;;;;13.23;3.22;;;;;;;;;;5051366;28;20028;-63
2022/05/21 00:24:55;;;;;;;13.70;3.25;;;;;;;;;;5052399;28;20013;-62
2022/05/21 00:27:21;;;;;;;11.93;3.17;;;;;;;;;;5052305;28;20033;-63
2022/05/21 00:29:47;;;;;;;23.35;3.60;;;;;;;;;;5051956;28;20036;-63
2022/05/21 00:32:14;;;;;;;41.03;4.95;;;;;;;;;;5052328;28;20052;-63
2022/05/21 00:34:41;;;;;;;13.80;3.58;;;;;;;;;;5051850;28;20039;-63
2022/05/21 00:37:07;;;;;;;12.45;3.50;;;;;;;;;;5052157;28;20021;-63
2022/05/21 00:39:33;;;;;;;18.42;4.07;;;;;;;;;;5051922;28;20021;-63
2022/05/21 00:42:06;;;;;;;13.02;3.08;;;;;;;;;;5052229;28;20045;-63
2022/05/21 00:44:32;;;;;;;15.73;3.28;;;;;;;;;;5051929;28;20376;-62
2022/05/21 00:46:59;;;;;;;16.90;3.83;;;;;;;;;;5051997;28;20036;-63
2022/05/21 00:49:29;;;;;;;11.75;3.13;;;;;;;;;;5052153;28;20036;-63
2022/05/21 00:52:03;;;;;;;18.33;4.55;;;;;;;;;;5051487;28;20024;-63
2022/05/21 00:54:37;;;;;;;12.90;3.00;;;;;;;;;;5051445;28;20509;-63
2022/05/21 00:57:09;;;;;;;23.58;3.97;;;;;;;;;;5044145;28;20049;-63
2022/05/21 00:59:48;;;;;;;12.82;3.17;;;;;;;;;;5051361;28;20489;-63
2022/05/21 01:02:16;;;;;;;14.82;3.22;;;;;;;;;;5070132;28;20493;-63
2022/05/21 01:04:44;;;;;;;15.25;3.50;;;;;;;;;;5051895;28;20432;-63
2022/05/21 01:07:10;;;;;;;14.65;3.00;;;;;;;;;;5054109;28;20431;-63
2022/05/21 01:09:38;;;;;;;13.13;2.92;;;;;;;;;;5053206;28;20025;-62
2022/05/21 01:12:06;;;;;;;13.38;2.42;;;;;;;;;;5053106;28;20032;-63
2022/05/21 01:14:32;;;;;;;14.25;2.90;;;;;;;;;;5052388;28;20100;-63
2022/05/21 01:17:00;;;;;;;17.40;3.30;;;;;;;;;;5049744;28;20452;-63
2022/05/21 01:19:26;;;;;;;17.45;3.92;;;;;;;;;;5053634;28;20039;-63
2022/05/21 01:21:52;;;;;;;16.23;3.83;;;;;;;;;;5056759;28;20025;-63
2022/05/21 01:24:18;;;;;;;15.65;3.05;;;;;;;;;;5052900;28;20025;-63
2022/05/21 01:26:44;;;;;;;13.85;3.38;;;;;;;;;;5052854;28;20033;-63
2022/05/21 01:29:15;;;;;;;18.20;3.38;;;;;;;;;;5051251;28;20021;-63
2022/05/21 01:31:47;;;;;;;11.50;3.17;;;;;;;;;;5050393;28;20028;-63
2022/05/21 01:34:13;;;;;;;13.85;3.10;;;;;;;;;;5053883;28;20032;-63
2022/05/21 01:36:39;;;;;;;9.98;2.75;;;;;;;;;;5054148;28;20126;-63
2022/05/21 01:39:05;;;;;;;16.60;3.10;;;;;;;;;;5039117;28;20032;-62
2022/05/21 01:41:32;;;;;;;15.15;3.20;;;;;;;;;;5054733;28;20069;-62
2022/05/21 01:46:43;;;;;;;15.25;3.88;;;;;;;;;;5057629;28;20039;-63
2022/05/21 01:49:09;;;;;;;18.83;3.40;;;;;;;;;;5053528;28;20025;-62
2022/05/21 01:51:35;;;;;;;13.93;3.28;;;;;;;;;;5054476;28;20029;-63
2022/05/21 01:54:01;;;;;;;13.13;3.30;;;;;;;;;;5054116;28;20037;-63
2022/05/21 01:56:27;;;;;;;12.93;2.45;;;;;;;;;;5053873;28;20060;-63
2022/05/21 01:58:53;;;;;;;9.85;2.67;;;;;;;;;;5052610;28;20037;-63
2022/05/21 02:01:20;;;;;;;15.52;2.83;;;;;;;;;;5053408;28;20025;-63
2022/05/21 02:03:46;;;;;;;10.85;2.70;;;;;;;;;;5052799;28;20548;-63
2022/05/21 02:06:12;;;;;;;10.23;2.42;;;;;;;;;;5053299;28;20087;-63
2022/05/21 02:08:38;;;;;;;7.03;2.25;;;;;;;;;;5053405;28;20028;-63
2022/05/21 02:11:05;;;;;;;11.32;2.90;;;;;;;;;;5053077;28;20036;-63
2022/05/21 02:13:32;;;;;;;13.05;2.55;;;;;;;;;;5053537;28;20086;-63
2022/05/21 02:15:59;;;;;;;9.38;2.63;;;;;;;;;;5052743;28;20037;-63
2022/05/21 02:18:25;;;;;;;14.60;3.80;;;;;;;;;;5052986;28;20029;-63
2022/05/21 02:20:52;;;;;;;12.48;2.63;;;;;;;;;;5052743;28;20037;-63
2022/05/21 02:23:19;;;;;;;9.18;2.45;;;;;;;;;;5051580;28;20167;-63
2022/05/21 02:25:45;;;;;;;9.45;2.78;;;;;;;;;;5052799;28;20052;-63
2022/05/21 02:28:12;;;;;;;14.23;3.10;;;;;;;;;;5052754;28;20014;-63
2022/05/21 02:30:39;;;;;;;8.38;2.75;;;;;;;;;;5053009;28;20021;-63
2022/05/21 02:33:05;;;;;;;9.77;2.28;;;;;;;;;;5052444;28;20362;-63
2022/05/21 02:35:31;;;;;;;9.55;2.53;;;;;;;;;;5053140;28;20075;-62
2022/05/21 02:40:42;;;;;;;13.00;2.70;;;;;;;;;;5052895;28;20029;-63
2022/05/21 02:43:08;;;;;;;12.13;3.22;;;;;;;;;;5052424;28;20485;-63
2022/05/21 02:45:34;;;;;;;7.80;2.33;;;;;;;;;;5063534;28;20037;-63
2022/05/21 02:48:00;;;;;;;9.20;2.42;;;;;;;;;;5052340;28;20366;-63
2022/05/21 02:50:32;;;;;;;12.05;2.25;;;;;;;;;;5052854;28;20108;-63
2022/05/21 02:52:59;;;;;;;12.50;2.97;;;;;;;;;;5052252;28;20100;-63
2022/05/21 02:55:26;;;;;;;13.38;2.85;;;;;;;;;;5052719;28;20013;-63
2022/05/21 02:57:52;;;;;;;12.30;3.00;;;;;;;;;;5011698;28;1193332;-63
2022/05/21 03:00:20;;;;;;;13.60;3.13;;;;;;;;;;5053518;28;20480;-63
2022/05/21 03:02:46;;;;;;;13.65;2.80;;;;;;;;;;5053263;28;20021;-63
2022/05/21 03:05:13;;;;;;;15.40;2.80;;;;;;;;;;5053183;28;20029;-63
2022/05/21 03:07:40;;;;;;;11.57;3.00;;;;;;;;;;5053447;28;20087;-63
2022/05/21 03:10:22;;;;;;;12.57;4.05;;;;;;;;;;5053169;28;20070;-62
2022/05/21 03:12:55;;;;;;;7.68;2.20;;;;;;;;;;5053930;28;20052;-63
2022/05/21 03:15:23;;;;;;;9.75;3.17;;;;;;;;;;5053286;28;20397;-63
2022/05/21 03:17:49;;;;;;;7.63;2.40;;;;;;;;;;5053048;28;20044;-63
2022/05/21 03:20:17;;;;;;;10.50;3.67;;;;;;;;;;5053213;28;20033;-63
2022/05/21 03:22:43;;;;;;;13.70;3.13;;;;;;;;;;5053292;28;20031;-63
2022/05/21 03:25:10;;;;;;;12.85;3.17;;;;;;;;;;5052848;28;20025;-63
2022/05/21 03:27:36;;;;;;;8.93;2.33;;;;;;;;;;5051841;28;20036;-62
2022/05/21 03:30:04;;;;;;;9.05;2.45;;;;;;;;;;5052391;28;20037;-63
2022/05/21 03:32:30;;;;;;;9.18;2.85;;;;;;;;;;5053027;28;20028;-63
2022/05/21 03:34:56;;;;;;;9.77;2.88;;;;;;;;;;5052801;28;20111;-63
2022/05/21 03:37:22;;;;;;;10.48;2.90;;;;;;;;;;5052225;28;20397;-62
2022/05/21 03:39:48;;;;;;;12.13;2.70;;;;;;;;;;5052319;28;20504;-63
2022/05/21 03:42:14;;;;;;;12.82;3.15;;;;;;;;;;5052930;28;20086;-63
2022/05/21 03:44:40;;;;;;;6.45;2.42;;;;;;;;;;5052836;28;20087;-64
2022/05/21 03:47:06;;;;;;;9.20;2.90;;;;;;;;;;5051612;28;20040;-64
2022/05/21 03:49:33;;;;;;;9.25;2.38;;;;;;;;;;5056344;28;20078;-64
2022/05/21 03:51:59;;;;;;;9.13;2.65;;;;;;;;;;5072788;28;20056;-64
2022/05/21 03:54:25;;;;;;;10.88;2.35;;;;;;;;;;5052825;28;20448;-64
2022/05/21 03:56:53;;;;;;;9.05;3.38;;;;;;;;;;5051996;28;20061;-64
2022/05/21 03:59:19;;;;;;;14.50;2.80;;;;;;;;;;5051886;28;20492;-64
2022/05/21 04:01:45;;;;;;;9.38;2.60;;;;;;;;;;5052038;28;20036;-64
2022/05/21 04:04:12;;;;;;;7.22;2.30;;;;;;;;;;5035455;28;20033;-64
2022/05/21 04:06:38;;;;;;;7.55;3.03;;;;;;;;;;5051931;28;20504;-64
2022/05/21 04:09:04;;;;;;;8.90;2.40;;;;;;;;;;5048200;28;20116;-64
2022/05/21 04:11:30;;;;;;;4.80;2.30;;;;;;;;;;5050338;28;20041;-64
2022/05/21 04:13:57;;;;;;;6.93;3.08;;;;;;;;;;5050226;28;20033;-64
2022/05/21 04:16:23;;;;;;;8.48;2.60;;;;;;;;;;5050086;28;20052;-64
2022/05/21 04:18:49;;;;;;;12.80;3.13;;;;;;;;;;5051596;28;20542;-69
2022/05/21 04:21:16;;;;;;;8.93;2.63;;;;;;;;;;5051350;28;20099;-64
2022/05/21 04:23:42;;;;;;;10.25;2.50;;;;;;;;;;5051904;28;20025;-64
2022/05/21 04:26:08;;;;;;;8.07;2.63;;;;;;;;;;5063054;28;20032;-64
2022/05/21 04:28:35;;;;;;;9.02;3.10;;;;;;;;;;5049356;28;20036;-64
2022/05/21 04:31:01;;;;;;;7.68;2.55;;;;;;;;;;5052448;28;20025;-64
2022/05/21 04:33:27;;;;;;;13.07;2.50;;;;;;;;;;5050185;28;20044;-64
2022/05/21 04:38:38;;;;;;;6.53;1.95;;;;;;;;;;5050775;28;20036;-64
2022/05/21 04:41:04;;;;;;;10.38;2.25;;;;;;;;;;5051142;28;20408;-64
2022/05/21 04:43:30;;;;;;;10.00;2.80;;;;;;;;;;5049386;28;20351;-64
2022/05/21 04:45:56;;;;;;;9.38;2.70;;;;;;;;;;5054311;28;20029;-64
2022/05/21 04:48:23;;;;;;;10.65;2.25;;;;;;;;;;5051015;28;20064;-64
2022/05/21 04:50:49;;;;;;;13.23;3.08;;;;;;;;;;5051016;28;20087;-64
2022/05/21 04:53:15;;;;;;;7.68;2.63;;;;;;;;;;5050764;28;20473;-64
2022/05/21 04:55:42;;;;;;;12.00;2.85;;;;;;;;;;5051093;28;20342;-64
2022/05/21 04:58:08;;;;;;;12.88;3.30;;;;;;;;;;5050390;28;20044;-64
2022/05/21 05:00:34;;;;;;;11.27;3.80;;;;;;;;;;5050532;28;20033;-64
2022/05/21 05:03:01;;;;;;;10.00;2.85;;;;;;;;;;5050813;28;20031;-64
2022/05/21 05:05:27;;;;;;;16.77;3.10;;;;;;;;;;5050650;28;20017;-64
2022/05/21 05:07:53;;;;;;;15.70;3.20;;;;;;;;;;5051740;28;20028;-64
2022/05/21 05:10:19;;;;;;;15.93;3.65;;;;;;;;;;5050580;28;20109;-64
2022/05/21 05:12:45;;;;;;;14.00;2.70;;;;;;;;;;5050754;28;20457;-64
2022/05/21 05:15:11;;;;;;;8.73;3.13;;;;;;;;;;5047387;28;20029;-64
2022/05/21 05:17:37;;;;;;;9.85;2.60;;;;;;;;;;5050632;28;20035;-64
2022/05/21 05:20:03;;;;;;;15.90;3.53;;;;;;;;;;5051068;28;20028;-64
2022/05/21 05:22:30;;;;;;;10.45;2.90;;;;;;;;;;5048018;28;20036;-64
2022/05/21 05:24:56;;;;;;;13.52;2.72;;;;;;;;;;5052411;28;20029;-64
2022/05/21 05:27:24;;;;;;;11.38;3.80;;;;;;;;;;5051567;28;20493;-64
2022/05/21 05:29:50;;;;;;;7.10;2.72;;;;;;;;;;5055432;28;20021;-64
2022/05/21 05:32:16;;;;;;;12.07;2.88;;;;;;;;;;5050331;28;20396;-65
2022/05/21 05:34:42;;;;;;;14.00;3.42;;;;;;;;;;5052448;28;20024;-64
2022/05/21 05:37:08;;;;;;;7.28;2.53;;;;;;;;;;5052006;28;20025;-65
2022/05/21 05:39:34;;;;;;;8.40;3.22;;;;;;;;;;5051460;28;20108;-65
2022/05/21 05:42:04;;;;;;;11.30;3.17;;;;;;;;;;5052084;28;20025;-64
2022/05/21 05:44:34;;;;;;;11.18;3.50;;;;;;;;;;5053559;28;20479;-64
2022/05/21 05:47:00;;;;;;;18.02;3.47;;;;;;;;;;5051536;28;20029;-64
2022/05/21 05:49:27;;;;;;;13.82;3.22;;;;;;;;;;5049694;28;20029;-65
2022/05/21 05:51:53;;;;;;;15.73;3.75;;;;;;;;;;5053403;28;20025;-65
2022/05/21 05:54:19;;;;;;;15.48;3.53;;;;;;;;;;5052995;28;20043;-65
2022/05/21 05:56:46;;;;;;;13.68;3.13;;;;;;;;;;5051765;28;20063;-64
2022/05/21 06:04:43;;;;;;;15.35;3.15;;;;;;;;;;5054240;28;20040;-64
2022/05/21 06:07:12;;;;;;;13.48;3.33;;;;;;;;;;5049892;28;20392;-64
2022/05/21 06:09:39;;;;;;;6.65;2.85;;;;;;;;;;5045308;28;20025;-65
2022/05/21 06:12:07;;;;;;;10.82;3.42;;;;;;;;;;5052936;28;20017;-65
2022/05/21 06:14:34;;;;;;;15.63;4.03;;;;;;;;;;5051584;28;20033;-64
2022/05/21 06:17:00;;;;;;;16.10;3.08;;;;;;;;;;5050216;28;20394;-65
2022/05/21 06:19:27;;;;;;;16.85;3.53;;;;;;;;;;5033416;28;20033;-65
2022/05/21 06:22:00;;;;;;;14.65;3.50;;;;;;;;;;5048282;28;20150;-65
2022/05/21 06:24:26;;;;;;;12.30;3.13;;;;;;;;;;5050398;28;20082;-65
2022/05/21 06:26:52;;;;;;;13.45;3.53;;;;;;;;;;5042477;28;20017;-65
2022/05/21 06:29:18;;;;;;;13.30;3.15;;;;;;;;;;5040304;28;20013;-65
2022/05/21 06:31:45;;;;;;;19.13;3.50;;;;;;;;;;5053019;28;20108;-65
2022/05/21 06:34:11;;;;;;;17.92;3.33;;;;;;;;;;5039802;28;20049;-65
2022/05/21 06:36:37;;;;;;;14.90;3.65;;;;;;;;;;5044192;28;20025;-65
2022/05/21 06:39:05;;;;;;;18.98;3.58;;;;;;;;;;5049443;28;20025;-65
2022/05/21 06:41:31;;;;;;;17.08;3.35;;;;;;;;;;5040611;28;20040;-65
2022/05/21 06:43:58;;;;;;;16.63;2.72;;;;;;;;;;5047670;28;20389;-65
2022/05/21 06:46:24;;;;;;;13.80;3.38;;;;;;;;;;5050585;28;20112;-65
2022/05/21 06:48:51;;;;;;;22.00;4.32;;;;;;;;;;5050552;28;20401;-65
2022/05/21 06:51:17;;;;;;;14.98;3.97;;;;;;;;;;5045019;28;20032;-65
2022/05/21 06:53:43;;;;;;;26.23;3.80;;;;;;;;;;5049173;28;20028;-66
2022/05/21 06:56:10;;;;;;;15.35;3.40;;;;;;;;;;5065007;28;20029;-65
2022/05/21 06:58:37;;;;;;;18.60;4.07;;;;;;;;;;5046930;28;20505;-65
2022/05/21 07:01:03;;;;;;;13.85;2.78;;;;;;;;;;5042833;28;20564;-65
2022/05/21 07:03:29;;;;;;;17.52;3.55;;;;;;;;;;5048782;28;20497;-65
2022/05/21 07:08:40;;;;;;;16.98;3.67;;;;;;;;;;5048335;28;20020;-65
2022/05/21 07:11:06;;;;;;;18.63;3.70;;;;;;;;;;5052783;28;20083;-65
2022/05/21 07:13:33;;;;;;;18.20;3.33;;;;;;;;;;5052831;28;20069;-65
2022/05/21 07:15:59;;;;;;;13.88;3.33;;;;;;;;;;5051549;28;20092;-65
2022/05/21 07:18:28;;;;;;;24.30;4.32;;;;;;;;;;5044284;28;20033;-65
2022/05/21 07:20:55;;;;;;;18.50;3.50;;;;;;;;;;5054514;28;20024;-65
2022/05/21 07:23:22;;;;;;;14.70;2.90;;;;;;;;;;5040784;28;20029;-65
2022/05/21 07:25:48;;;;;;;11.13;3.03;;;;;;;;;;5042198;28;20108;-65
2022/05/21 07:28:14;;;;;;;13.05;3.03;;;;;;;;;;5041108;28;20021;-65
2022/05/21 07:30:42;;;;;;;12.57;2.85;;;;;;;;;;5041651;28;20025;-65
2022/05/21 07:33:12;;;;;;;21.92;3.40;;;;;;;;;;5044184;28;20122;-65
2022/05/21 07:35:38;;;;;;;18.95;3.15;;;;;;;;;;5045982;28;20139;-65
2022/05/21 07:38:05;;;;;;;11.73;3.22;;;;;;;;;;5047119;28;20092;-66
2022/05/21 07:40:32;;;;;;;14.20;2.85;;;;;;;;;;5050993;28;20040;-66
2022/05/21 07:42:58;;;;;;;17.15;3.03;;;;;;;;;;5055935;28;20056;-66
2022/05/21 07:45:24;;;;;;;22.58;3.88;;;;;;;;;;5056476;28;20028;-66
2022/05/21 07:47:51;;;;;;;17.88;3.22;;;;;;;;;;5045008;28;20485;-66
2022/05/21 07:50:18;;;;;;;15.40;3.63;;;;;;;;;;5048498;28;20021;-66
2022/05/21 07:52:44;;;;;;;23.02;4.32;;;;;;;;;;5047213;28;20053;-66
2022/05/21 07:55:11;;;;;;;8.43;1.95;;;;;;;;;;5049961;28;20021;-66
2022/05/21 07:57:38;;;;;;;16.23;2.65;;;;;;;;;;5049510;28;20136;-66
2022/05/21 08:00:05;;;;;;;12.23;2.83;;;;;;;;;;5055784;28;20029;-67
2022/05/21 08:02:40;;;;;;;16.65;3.20;;;;;;;;;;5032353;28;20436;-67
2022/05/21 08:05:07;;;;;;;12.63;2.60;;;;;;;;;;5039607;28;20492;-67
2022/05/21 08:07:33;;;;;;;12.25;2.33;;;;;;;;;;5051770;28;20104;-67
2022/05/21 08:09:59;;;;;;;14.57;2.38;;;;;;;;;;5051305;28;20136;-67
2022/05/21 08:12:25;;;;;;;11.13;2.70;;;;;;;;;;5050819;28;20087;-67
2022/05/21 08:14:51;;;;;;;8.00;1.85;;;;;;;;;;5066566;28;20428;-67
2022/05/21 08:17:17;;;;;;;17.05;2.35;;;;;;;;;;5052327;28;20028;-67
2022/05/21 08:19:43;;;;;;;11.75;2.25;;;;;;;;;;5051699;28;20032;-66
2022/05/21 08:27:40;;;;;;;15.20;2.53;;;;;;;;;;5047101;28;20029;-67
2022/05/21 08:30:06;;;;;;;15.60;2.88;;;;;;;;;;5051043;28;20028;-67
2022/05/21 08:32:32;;;;;;;5.03;2.28;;;;;;;;;;5058161;28;20029;-67
2022/05/21 08:35:01;;;;;;;11.40;2.13;;;;;;;;;;5052570;28;20032;-67
2022/05/21 08:37:28;;;;;;;9.35;2.08;;;;;;;;;;5056753;28;20120;-67
2022/05/21 08:39:54;;;;;;;11.15;1.90;;;;;;;;;;5051078;28;20534;-67
2022/05/21 08:42:23;;;;;;;12.80;2.05;;;;;;;;;;5050894;28;20016;-67
2022/05/21 08:44:50;;;;;;;13.43;1.95;;;;;;;;;;5051190;28;20088;-67
2022/05/21 08:47:20;;;;;;;12.90;2.50;;;;;;;;;;5050736;28;20040;-67
2022/05/21 08:49:51;;;;;;;11.70;3.08;;;;;;;;;;5050119;28;20028;-67
2022/05/21 08:52:37;;;;;;;7.97;1.70;;;;;;;;;;5044836;28;20100;-67
2022/05/21 08:55:05;;;;;;;10.73;2.00;;;;;;;;;;5048782;28;20108;-67
2022/05/21 08:57:43;;;;;;;9.73;1.90;;;;;;;;;;5051358;28;20052;-67
2022/05/21 09:00:11;;;;;;;11.70;1.98;;;;;;;;;;5052670;28;20448;-67
2022/05/21 09:02:37;;;;;;;12.70;2.38;;;;;;;;;;5053340;28;20115;-67
2022/05/21 09:05:06;;;;;;;5.88;1.60;;;;;;;;;;5052428;28;20033;-67
2022/05/21 09:07:39;;;;;;;10.15;1.75;;;;;;;;;;5050405;28;20028;-67
2022/05/21 09:10:13;;;;;;;7.35;2.13;;;;;;;;;;5056919;28;20024;-67
2022/05/21 09:13:06;;;;;;;9.98;2.10;;;;;;;;;;5055257;28;20036;-67
2022/05/21 09:18:16;;;;;;;12.75;2.05;;;;;;;;;;5050731;28;20544;-67
2022/05/21 09:20:59;;;;;;;14.52;2.42;;;;;;;;;;5050458;28;20029;-67
2022/05/21 09:23:26;;;;;;;6.50;1.90;;;;;;;;;;5050755;28;20032;-67
2022/05/21 09:26:06;;;;;;;9.93;1.40;;;;;;;;;;5058265;28;20028;-67
2022/05/21 09:28:37;;;;;;;8.77;1.75;;;;;;;;;;5061288;28;20079;-67
2022/05/21 09:31:05;;;;;;;6.50;1.73;;;;;;;;;;5035315;28;20045;-67
2022/05/21 09:33:36;;;;;;;13.93;2.10;;;;;;;;;;5042187;28;20104;-67
2022/05/21 09:36:02;;;;;;;8.45;1.70;;;;;;;;;;5065275;28;20016;-67
2022/05/21 09:38:30;;;;;;;5.28;2.00;;;;;;;;;;5057204;28;20065;-66
2022/05/21 09:41:16;;;;;;;14.30;2.10;;;;;;;;;;5063008;28;20067;-67
2022/05/21 09:47:13;;;;;;;13.60;2.30;;;;;;;;;;5013173;28;20046;-67
2022/05/21 09:49:40;;;;;;;11.07;2.70;;;;;;;;;;5012066;28;20045;-67
2022/05/21 09:52:07;;;;;;;9.57;2.35;;;;;;;;;;5008636;28;20037;-67
2022/05/21 09:54:40;;;;;;;11.25;2.10;;;;;;;;;;5011030;28;20045;-67
2022/05/21 09:57:07;;;;;;;12.30;2.92;;;;;;;;;;5009068;28;20582;-67
2022/05/21 09:59:34;;;;;;;9.30;2.53;;;;;;;;;;5008669;28;20406;-67
2022/05/21 10:02:01;;;;;;;8.95;1.75;;;;;;;;;;5010488;28;20608;-66
2022/05/21 10:04:33;;;;;;;7.60;1.52;;;;;;;;;;5009892;28;20029;-66
2022/05/21 10:06:59;;;;;;;15.40;2.88;;;;;;;;;;5009630;28;20418;-66
2022/05/21 10:12:34;;;;;;;20.00;2.40;;;;;;;;;;5009832;28;20490;-66
2022/05/21 10:15:03;;;;;;;15.10;2.42;;;;;;;;;;5010442;28;20042;-66
2022/05/21 10:17:29;;;;;;;11.55;2.30;;;;;;;;;;5010033;28;20113;-66
2022/05/21 10:19:55;;;;;;;11.93;2.58;;;;;;;;;;5014112;28;20098;-66
2022/05/21 10:22:41;;;;;;;12.40;2.50;;;;;;;;;;5052157;28;20037;-66
2022/05/21 10:25:14;;;;;;;12.32;2.03;;;;;;;;;;5050403;28;20405;-66
2022/05/21 10:27:40;;;;;;;;;;;;;;;;;;5050971;28;20036;-66
2022/05/21 10:30:11;;;;;;;11.60;2.00;;;;;;;;;;5053976;28;19909;-66
2022/05/21 10:32:50;;;;;;;9.75;2.30;;;;;;;;;;5053820;28;20064;-66
2022/05/21 10:35:25;;;;;;;14.05;2.38;;;;;;;;;;5053567;28;20029;-66
2022/05/21 10:37:58;;;;;;;10.43;2.28;;;;;;;;;;5053705;28;20033;-66
2022/05/21 10:40:44;;;;;;;10.43;2.03;;;;;;;;;;5052985;28;20044;-66
2022/05/21 10:43:19;;;;;;;8.70;1.65;;;;;;;;;;5053189;28;20400;-66
2022/05/21 10:45:52;;;;;;;10.73;2.00;;;;;;;;;;5048942;28;20140;-66
2022/05/21 10:48:28;;;;;;;10.48;2.72;;;;;;;;;;5045862;28;20393;-66
2022/05/21 10:51:14;;;;;;;13.85;1.92;;;;;;;;;;5052725;28;20025;-66
2022/05/21 10:53:48;;;;;;;9.68;2.10;;;;;;;;;;5051607;28;20389;-66
2022/05/21 10:56:17;;;;;;;13.73;2.85;;;;;;;;;;5049805;28;20041;-66
2022/05/21 10:58:52;;;;;;;10.80;2.47;;;;;;;;;;5050877;28;20044;-66
2022/05/21 11:01:27;;;;;;;16.77;2.10;;;;;;;;;;5050694;28;20025;-66
2022/05/21 11:04:04;;;;;;;13.45;2.08;;;;;;;;;;5051370;28;20059;-66
2022/05/21 11:06:49;;;;;;;12.68;2.05;;;;;;;;;;5050075;28;20029;-66
2022/05/21 11:09:27;;;;;;;12.48;2.03;;;;;;;;;;5046940;28;20052;-66
2022/05/21 11:11:53;;;;;;;12.02;2.17;;;;;;;;;;5045727;28;20028;-66
2022/05/21 11:14:23;;;;;;;8.35;2.30;;;;;;;;;;5048745;28;20464;-66
2022/05/21 11:16:49;;;;;;;8.68;1.92;;;;;;;;;;5046365;28;20029;-66
2022/05/21 11:19:30;;;;;;;10.77;2.80;;;;;;;;;;5044717;28;20032;-66
2022/05/21 11:22:02;;;;;;;9.52;2.25;;;;;;;;;;5044482;28;20032;-66
2022/05/21 11:24:38;;;;;;;9.93;2.60;;;;;;;;;;5048936;28;20501;-66
2022/05/21 11:27:21;;;;;;;10.65;1.77;;;;;;;;;;5051190;28;20098;-66
2022/05/21 11:29:54;;;;;;;14.23;2.42;;;;;;;;;;5053482;28;20057;-66
2022/05/21 11:37:59;;;;;;;10.85;2.10;;;;;;;;;;5053391;28;20440;-66
2022/05/21 11:43:54;;;;;;;9.23;1.95;;;;;;;;;;5035194;28;20037;-66
2022/05/21 11:46:26;;;;;;;15.50;2.95;;;;;;;;;;5052695;28;20021;-66
2022/05/21 11:48:52;;;;;;;13.73;2.70;;;;;;;;;;5055390;28;20029;-66
2022/05/21 11:51:19;;;;;;;9.82;2.60;;;;;;;;;;5071374;28;20039;-66
2022/05/21 11:53:46;;;;;;;10.43;2.60;;;;;;;;;;5070175;28;20029;-66
2022/05/21 11:56:14;;;;;;;11.13;3.08;;;;;;;;;;5053411;28;20139;-66
2022/05/21 11:58:49;;;;;;;15.45;3.40;;;;;;;;;;5064482;28;20057;-66
2022/05/21 12:01:44;;;;;;;14.07;2.35;;;;;;;;;;5052971;28;20489;-66
2022/05/21 12:04:29;;;;;;;12.50;2.53;;;;;;;;;;5052737;28;20033;-66
2022/05/21 12:06:55;;;;;;;6.45;2.08;;;;;;;;;;5052723;28;20435;-66
2022/05/21 12:09:24;;;;;;;10.65;2.97;;;;;;;;;;5051376;28;20103;-66
2022/05/21 12:11:51;;;;;;;11.35;2.38;;;;;;;;;;5043662;28;20037;-66
2022/05/21 12:14:20;;;;;;;8.68;2.20;;;;;;;;;;5044874;28;20109;-66
2022/05/21 12:16:48;;;;;;;15.80;2.83;;;;;;;;;;5044231;28;20028;-66
2022/05/21 12:19:34;;;;;;;12.30;3.20;;;;;;;;;;5052699;28;20469;-66
2022/05/21 12:22:03;;;;;;;16.88;2.45;;;;;;;;;;5052354;28;20450;-66
2022/05/21 12:24:33;;;;;;;12.80;2.05;;;;;;;;;;5051575;28;20020;-66
2022/05/21 12:27:24;;;;;;;13.63;2.00;;;;;;;;;;5052982;28;20041;-66
2022/05/21 12:29:53;;;;;;;12.05;2.72;;;;;;;;;;5050435;28;20107;-66
2022/05/21 12:32:23;;;;;;;11.02;2.80;;;;;;;;;;5053531;28;20033;-66
2022/05/21 12:35:08;;;;;;;10.85;2.35;;;;;;;;;;5049586;28;20025;-67
2022/05/21 12:37:45;;;;;;;12.93;2.40;;;;;;;;;;5050373;28;20516;-67
2022/05/21 12:40:11;;;;;;;12.20;2.55;;;;;;;;;;5049156;28;20516;-67
2022/05/21 12:42:49;;;;;;;10.90;2.40;;;;;;;;;;5049511;28;20027;-67
2022/05/21 12:45:31;;;;;;;10.38;2.33;;;;;;;;;;5050343;28;20087;-67
2022/05/21 12:48:09;;;;;;;19.92;2.97;;;;;;;;;;5050072;28;20052;-67
2022/05/21 12:50:36;;;;;;;8.98;2.95;;;;;;;;;;5049856;28;20036;-67
2022/05/21 12:53:04;;;;;;;11.63;2.70;;;;;;;;;;5046696;28;20033;-67
2022/05/21 12:55:31;;;;;;;12.48;2.33;;;;;;;;;;5048685;28;20028;-67
2022/05/21 12:57:58;;;;;;;19.10;2.55;;;;;;;;;;5050348;28;20128;-67
2022/05/21 13:00:29;;;;;;;13.80;1.88;;;;;;;;;;5054432;28;20025;-67
2022/05/21 13:02:56;;;;;;;6.63;1.75;;;;;;;;;;5054694;28;20056;-67
2022/05/21 13:05:25;;;;;;;10.38;2.80;;;;;;;;;;5054961;28;20040;-67
2022/05/21 13:07:52;;;;;;;12.18;2.50;;;;;;;;;;5054513;28;20469;-67
2022/05/21 13:10:18;;;;;;;11.73;2.55;;;;;;;;;;5052505;28;20021;-67
2022/05/21 13:12:46;;;;;;;13.95;2.58;;;;;;;;;;5050748;28;20029;-67
2022/05/21 13:15:17;;;;;;;17.80;3.35;;;;;;;;;;5068065;28;20038;-67
2022/05/21 13:17:48;;;;;;;6.13;1.80;;;;;;;;;;5068007;28;20040;-67
2022/05/21 13:20:33;;;;;;;12.27;2.28;;;;;;;;;;5044343;28;20033;-66
2022/05/21 13:23:34;;;;;;;12.13;2.28;;;;;;;;;;5042834;28;20033;-64
2022/05/21 13:26:00;;;;;;;16.50;3.33;;;;;;;;;;5008396;28;20137;-64
2022/05/21 13:28:27;;;;;;;11.43;3.17;;;;;;;;;;5006457;28;20092;-64
2022/05/21 13:30:53;;;;;;;12.85;2.67;;;;;;;;;;5013787;28;20117;-64
2022/05/21 13:33:28;;;;;;;12.95;3.28;;;;;;;;;;5013955;28;20041;-64
2022/05/21 13:35:56;;;;;;;9.77;1.98;;;;;;;;;;5007360;28;20040;-64
2022/05/21 13:38:28;;;;;;;13.73;2.75;;;;;;;;;;5011872;28;20065;-64
2022/05/21 13:40:56;;;;;;;9.57;1.93;;;;;;;;;;5006145;28;20048;-64
2022/05/21 13:43:24;;;;;;;13.32;2.58;;;;;;;;;;5007142;28;21486;-64
2022/05/21 13:45:52;;;;;;;14.68;2.42;;;;;;;;;;5005058;28;20057;-64
2022/05/21 13:48:21;;;;;;;10.65;2.20;;;;;;;;;;5013124;28;20510;-64
2022/05/21 13:50:47;;;;;;;8.10;1.90;;;;;;;;;;5007420;28;20026;-63
2022/05/21 13:53:15;;;;;;;12.68;2.10;;;;;;;;;;5012312;28;20045;-64
2022/05/21 13:56:13;;;;;;;16.63;1.98;;;;;;;;;;5012459;28;20072;-64
2022/05/21 13:58:41;;;;;;;15.88;2.20;;;;;;;;;;4931217;29;20100;-64
2022/05/21 14:01:19;;;;;;;12.82;2.08;;;;;;;;;;4979984;28;20084;-64
2022/05/21 14:03:47;;;;;;;7.07;1.85;;;;;;;;;;4973723;28;20030;-64
2022/05/21 14:06:21;;;;;;;6.88;1.42;;;;;;;;;;4971186;28;20023;-63
2022/05/21 14:09:06;;;;;;;11.68;2.45;;;;;;;;;;4972477;28;20077;-63
2022/05/21 14:11:34;;;;;;;5.80;1.73;;;;;;;;;;4971890;28;20022;-64
2022/05/21 14:14:04;;;;;;;7.82;2.50;;;;;;;;;;4973498;28;20038;-64
2022/05/21 14:16:38;;;;;;;14.90;2.30;;;;;;;;;;4973732;28;20061;-63
2022/05/21 14:19:05;;;;;;;7.57;1.80;;;;;;;;;;4973591;28;20034;-63
2022/05/21 14:21:32;;;;;;;10.95;2.25;;;;;;;;;;4971289;28;20632;-66
2022/05/21 14:24:14;;;;;;;12.23;1.77;;;;;;;;;;4976202;28;20129;-66
2022/05/21 14:26:40;;;;;;;52.58;7.88;;;;;;;;;;4972667;28;20050;-66
2022/05/21 14:29:24;;;;;;;10.60;1.95;;;;;;;;;;4972910;28;20545;-66
2022/05/21 14:31:51;;;;;;;14.98;2.45;;;;;;;;;;4973644;28;20062;-66
2022/05/21 14:34:17;;;;;;;9.32;1.92;;;;;;;;;;5011280;28;20068;-66
2022/05/21 14:36:45;;;;;;;10.80;2.25;;;;;;;;;;5054033;28;20025;-66
2022/05/21 14:39:11;;;;;;;8.00;1.70;;;;;;;;;;5040653;28;20462;-67
2022/05/21 14:41:38;;;;;;;9.30;1.90;;;;;;;;;;5045248;28;20578;-67
2022/05/21 14:44:06;;;;;;;11.73;1.88;;;;;;;;;;5053824;28;20443;-69
2022/05/21 14:49:17;;;;;;;8.32;1.90;;;;;;;;;;5042281;28;20047;-66
2022/05/21 14:54:32;;;;;;;9.20;2.05;;;;;;;;;;5053899;28;20021;-67
2022/05/21 14:56:58;;;;;;;6.57;1.65;;;;;;;;;;5073268;28;20055;-67
2022/05/21 14:59:25;;;;;;;13.10;2.42;;;;;;;;;;5073975;28;20028;-67
2022/05/21 15:01:52;;;;;;;14.85;2.50;;;;;;;;;;5050438;28;20029;-67
2022/05/21 15:04:18;;;;;;;4.55;1.67;;;;;;;;;;5033514;28;20044;-67
2022/05/21 15:06:44;;;;;;;6.60;1.52;;;;;;;;;;5042107;28;20124;-67
2022/05/21 15:09:12;;;;;;;10.80;1.95;;;;;;;;;;5073470;28;20399;-67
2022/05/21 15:11:38;;;;;;;11.52;2.50;;;;;;;;;;5047041;28;20377;-67
2022/05/21 15:14:05;;;;;;;10.68;2.10;;;;;;;;;;5053043;28;20040;-67
2022/05/21 15:16:31;;;;;;;8.88;2.10;;;;;;;;;;5053112;28;20025;-67
2022/05/21 15:18:59;;;;;;;8.00;2.15;;;;;;;;;;5052729;28;20029;-66
2022/05/21 15:21:29;;;;;;;12.23;2.20;;;;;;;;;;5051931;28;20960;-67
2022/05/21 15:23:57;;;;;;;16.73;2.90;;;;;;;;;;5038800;28;20520;-67
2022/05/21 15:26:23;;;;;;;11.05;2.25;;;;;;;;;;5053129;28;20126;-67
2022/05/21 15:28:50;;;;;;;7.00;1.90;;;;;;;;;;5053235;28;20500;-67